Mc Kenzie Bridge, Oregon
Current Conditions -  °F | °C
As of 10:55 AM on Friday 24 Oct 2014 (Local Time) from KBDN Reporting Station
Light Rain Light Rain  
Wind Chill: 44°   Ceiling: Unl
Heat Index: 46°   Visibility: 8mi
Dew Point: 45°   Wind: 6mph
Humidity: 93%   Direction: 140°SE
Pressure: 30.03"   Gusts: NA
Location:  44.2049°N, 122.069°W
Report Text: KBDN 241755Z AUTO 14005KT 8SM -RA CLR 08/07 A3003 RMK AO2
Loading
Personal Weather Stations






























Interactive Weather Map
Tropical Storm Tracking
New forecast layout! Learn more

10-Day Weather Forecast

Advertisements
Track Severe Weather on mobile